sensor_id;sensor_type;location;lat;lon;timestamp;pressure;altitude;pressure_sealevel;temperature;humidity
10658;BME280;5377;43.276;26.930;2023-07-13T00:00:48;99072.25;;;23.81;100.00
10658;BME280;5377;43.276;26.930;2023-07-13T00:03:15;99071.78;;;23.74;100.00
10658;BME280;5377;43.276;26.930;2023-07-13T00:05:42;99066.63;;;23.72;100.00
10658;BME280;5377;43.276;26.930;2023-07-13T00:08:11;99068.06;;;23.64;100.00
10658;BME280;5377;43.276;26.930;2023-07-13T00:10:41;99072.84;;;23.49;100.00
10658;BME280;5377;43.276;26.930;2023-07-13T00:13:08;99053.41;;;23.50;100.00
10658;BME280;5377;43.276;26.930;2023-07-13T00:15:36;99073.41;;;23.46;100.00
10658;BME280;5377;43.276;26.930;2023-07-13T00:18:03;99064.34;;;23.50;100.00
10658;BME280;5377;43.276;26.930;2023-07-13T00:20:30;99056.66;;;23.52;100.00
10658;BME280;5377;43.276;26.930;2023-07-13T00:22:57;99053.22;;;23.42;100.00
10658;BME280;5377;43.276;26.930;2023-07-13T00:25:25;99056.19;;;23.45;100.00
10658;BME280;5377;43.276;26.930;2023-07-13T00:27:54;99057.66;;;23.38;100.00
10658;BME280;5377;43.276;26.930;2023-07-13T00:30:21;99061.13;;;23.43;100.00
10658;BME280;5377;43.276;26.930;2023-07-13T00:32:49;99033.97;;;23.28;100.00
10658;BME280;5377;43.276;26.930;2023-07-13T00:35:16;99055.63;;;23.48;100.00
10658;BME280;5377;43.276;26.930;2023-07-13T00:37:44;99058.06;;;23.50;100.00
10658;BME280;5377;43.276;26.930;2023-07-13T00:40:12;98986.34;;;23.05;100.00
10658;BME280;5377;43.276;26.930;2023-07-13T00:42:41;99049.03;;;23.49;100.00
10658;BME280;5377;43.276;26.930;2023-07-13T00:48:09;99039.28;;;23.43;100.00
10658;BME280;5377;43.276;26.930;2023-07-13T00:50:37;99042.63;;;23.35;100.00
10658;BME280;5377;43.276;26.930;2023-07-13T00:53:04;99037.81;;;23.27;100.00
10658;BME280;5377;43.276;26.930;2023-07-13T00:55:31;99037.75;;;23.32;100.00
10658;BME280;5377;43.276;26.930;2023-07-13T00:57:59;99044.63;;;23.29;100.00
10658;BME280;5377;43.276;26.930;2023-07-13T01:00:29;99020.00;;;23.29;100.00
10658;BME280;5377;43.276;26.930;2023-07-13T01:02:55;99035.59;;;23.29;100.00
10658;BME280;5377;43.276;26.930;2023-07-13T01:05:24;99038.63;;;23.27;100.00
10658;BME280;5377;43.276;26.930;2023-07-13T01:07:52;99023.13;;;23.18;100.00
10658;BME280;5377;43.276;26.930;2023-07-13T01:10:22;99020.09;;;23.19;100.00
10658;BME280;5377;43.276;26.930;2023-07-13T01:12:50;99033.47;;;23.21;100.00
10658;BME280;5377;43.276;26.930;2023-07-13T01:15:40;99024.97;;;23.22;100.00
10658;BME280;5377;43.276;26.930;2023-07-13T01:18:10;99016.59;;;23.14;100.00
10658;BME280;5377;43.276;26.930;2023-07-13T01:20:38;99027.41;;;23.24;100.00
10658;BME280;5377;43.276;26.930;2023-07-13T01:23:08;99012.75;;;23.15;100.00
10658;BME280;5377;43.276;26.930;2023-07-13T01:25:36;99023.13;;;23.18;100.00
10658;BME280;5377;43.276;26.930;2023-07-13T01:28:04;99020.91;;;23.20;100.00
10658;BME280;5377;43.276;26.930;2023-07-13T01:30:32;99006.06;;;23.02;100.00
10658;BME280;5377;43.276;26.930;2023-07-13T01:32:59;99019.19;;;23.29;100.00
10658;BME280;5377;43.276;26.930;2023-07-13T01:35:26;99014.03;;;23.27;100.00
10658;BME280;5377;43.276;26.930;2023-07-13T01:37:53;99023.78;;;23.33;100.00
10658;BME280;5377;43.276;26.930;2023-07-13T01:40:21;99017.13;;;23.16;100.00
10658;BME280;5377;43.276;26.930;2023-07-13T01:42:48;99025.47;;;23.29;100.00
10658;BME280;5377;43.276;26.930;2023-07-13T01:45:15;99019.50;;;23.22;100.00
10658;BME280;5377;43.276;26.930;2023-07-13T01:47:42;99004.84;;;23.13;100.00
10658;BME280;5377;43.276;26.930;2023-07-13T01:50:10;99011.41;;;23.12;100.00
10658;BME280;5377;43.276;26.930;2023-07-13T01:52:37;99023.75;;;23.10;100.00
10658;BME280;5377;43.276;26.930;2023-07-13T01:55:04;99018.03;;;23.06;100.00
10658;BME280;5377;43.276;26.930;2023-07-13T01:57:33;99015.59;;;23.05;100.00
10658;BME280;5377;43.276;26.930;2023-07-13T02:00:01;99021.06;;;23.05;100.00
10658;BME280;5377;43.276;26.930;2023-07-13T02:02:30;98926.78;;;22.44;100.00
10658;BME280;5377;43.276;26.930;2023-07-13T02:04:57;98987.31;;;22.90;100.00
10658;BME280;5377;43.276;26.930;2023-07-13T02:07:23;99021.53;;;23.12;100.00
10658;BME280;5377;43.276;26.930;2023-07-13T02:09:50;99022.22;;;22.98;100.00
10658;BME280;5377;43.276;26.930;2023-07-13T02:12:17;99017.28;;;23.00;100.00
10658;BME280;5377;43.276;26.930;2023-07-13T02:14:45;99006.97;;;22.92;100.00
10658;BME280;5377;43.276;26.930;2023-07-13T02:17:13;98996.88;;;22.93;100.00
10658;BME280;5377;43.276;26.930;2023-07-13T02:19:40;99021.06;;;23.05;100.00
10658;BME280;5377;43.276;26.930;2023-07-13T02:22:07;99008.84;;;22.97;100.00
10658;BME280;5377;43.276;26.930;2023-07-13T02:24:34;98999.31;;;22.94;100.00
10658;BME280;5377;43.276;26.930;2023-07-13T02:27:01;99013.97;;;23.03;100.00
10658;BME280;5377;43.276;26.930;2023-07-13T02:29:28;99018.91;;;23.01;100.00
10658;BME280;5377;43.276;26.930;2023-07-13T02:31:56;99024.91;;;23.03;100.00
10658;BME280;5377;43.276;26.930;2023-07-13T02:34:23;99034.00;;;22.94;100.00
10658;BME280;5377;43.276;26.930;2023-07-13T02:36:50;99030.44;;;22.93;100.00
10658;BME280;5377;43.276;26.930;2023-07-13T02:39:17;99017.69;;;22.79;100.00
10658;BME280;5377;43.276;26.930;2023-07-13T02:41:43;99029.59;;;22.98;100.00
10658;BME280;5377;43.276;26.930;2023-07-13T02:44:12;99019.00;;;22.91;100.00
10658;BME280;5377;43.276;26.930;2023-07-13T02:46:39;99030.69;;;22.97;100.00
10658;BME280;5377;43.276;26.930;2023-07-13T02:49:07;99027.19;;;22.91;100.00
10658;BME280;5377;43.276;26.930;2023-07-13T02:51:34;99030.22;;;22.85;100.00
10658;BME280;5377;43.276;26.930;2023-07-13T02:54:01;99034.34;;;22.77;100.00
10658;BME280;5377;43.276;26.930;2023-07-13T02:56:29;99039.34;;;22.70;100.00
10658;BME280;5377;43.276;26.930;2023-07-13T02:58:57;99017.56;;;22.60;100.00
10658;BME280;5377;43.276;26.930;2023-07-13T03:01:24;99044.78;;;22.70;100.00
10658;BME280;5377;43.276;26.930;2023-07-13T03:03:52;99035.50;;;22.71;100.00
10658;BME280;5377;43.276;26.930;2023-07-13T03:06:20;99033.25;;;22.83;100.00
10658;BME280;5377;43.276;26.930;2023-07-13T03:08:48;99031.63;;;22.82;100.00
10658;BME280;5377;43.276;26.930;2023-07-13T03:11:18;99038.72;;;22.83;100.00
10658;BME280;5377;43.276;26.930;2023-07-13T03:13:45;99031.03;;;22.85;100.00
10658;BME280;5377;43.276;26.930;2023-07-13T03:16:13;99043.53;;;22.96;100.00
10658;BME280;5377;43.276;26.930;2023-07-13T03:18:41;99025.28;;;22.92;100.00
10658;BME280;5377;43.276;26.930;2023-07-13T03:21:08;99014.97;;;22.79;100.00
10658;BME280;5377;43.276;26.930;2023-07-13T03:23:37;99036.34;;;23.06;100.00
10658;BME280;5377;43.276;26.930;2023-07-13T03:26:07;99036.88;;;23.08;100.00
10658;BME280;5377;43.276;26.930;2023-07-13T03:28:34;99032.47;;;23.12;100.00
10658;BME280;5377;43.276;26.930;2023-07-13T03:31:02;99036.78;;;23.18;100.00
10658;BME280;5377;43.276;26.930;2023-07-13T03:33:29;99026.47;;;23.10;100.00
10658;BME280;5377;43.276;26.930;2023-07-13T03:35:56;99036.19;;;23.26;100.00
10658;BME280;5377;43.276;26.930;2023-07-13T03:38:24;99035.66;;;23.19;100.00
10658;BME280;5377;43.276;26.930;2023-07-13T03:40:53;99041.41;;;23.17;100.00
10658;BME280;5377;43.276;26.930;2023-07-13T03:43:19;99036.66;;;23.33;100.00
10658;BME280;5377;43.276;26.930;2023-07-13T03:45:47;99044.91;;;23.28;100.00
10658;BME280;5377;43.276;26.930;2023-07-13T03:48:14;99040.38;;;23.42;100.00
10658;BME280;5377;43.276;26.930;2023-07-13T03:50:41;99040.38;;;23.42;100.00
10658;BME280;5377;43.276;26.930;2023-07-13T03:53:08;99046.38;;;23.44;100.00
10658;BME280;5377;43.276;26.930;2023-07-13T03:55:35;99032.75;;;23.39;100.00
10658;BME280;5377;43.276;26.930;2023-07-13T03:58:26;99050.34;;;23.57;100.00
10658;BME280;5377;43.276;26.930;2023-07-13T04:00:53;99043.69;;;23.68;100.00
10658;BME280;5377;43.276;26.930;2023-07-13T04:03:20;99024.94;;;23.56;100.00
10658;BME280;5377;43.276;26.930;2023-07-13T04:05:47;99039.66;;;23.84;100.00
10658;BME280;5377;43.276;26.930;2023-07-13T04:08:17;99043.38;;;23.93;100.00
10658;BME280;5377;43.276;26.930;2023-07-13T04:11:05;99041.94;;;24.01;100.00
10658;BME280;5377;43.276;26.930;2023-07-13T04:13:37;99037.22;;;24.07;100.00
10658;BME280;5377;43.276;26.930;2023-07-13T04:16:04;99032.84;;;24.06;100.00
10658;BME280;5377;43.276;26.930;2023-07-13T04:18:31;99038.84;;;24.26;100.00
10658;BME280;5377;43.276;26.930;2023-07-13T04:20:58;99036.53;;;24.39;100.00
10658;BME280;5377;43.276;26.930;2023-07-13T04:23:24;99041.63;;;24.45;100.00
10658;BME280;5377;43.276;26.930;2023-07-13T04:25:53;99033.88;;;24.34;100.00
10658;BME280;5377;43.276;26.930;2023-07-13T04:28:20;99032.75;;;24.35;100.00
10658;BME280;5377;43.276;26.930;2023-07-13T04:30:49;99034.16;;;24.32;100.00
10658;BME280;5377;43.276;26.930;2023-07-13T04:33:16;99023.75;;;24.34;100.00
10658;BME280;5377;43.276;26.930;2023-07-13T04:35:47;99027.22;;;24.40;100.00
10658;BME280;5377;43.276;26.930;2023-07-13T04:38:14;99038.09;;;24.64;100.00
10658;BME280;5377;43.276;26.930;2023-07-13T04:40:42;99020.63;;;24.41;100.00
10658;BME280;5377;43.276;26.930;2023-07-13T04:43:10;99030.53;;;24.55;100.00
10658;BME280;5377;43.276;26.930;2023-07-13T04:45:37;99041.78;;;24.73;100.00
10658;BME280;5377;43.276;26.930;2023-07-13T04:48:05;99039.16;;;24.81;100.00
10658;BME280;5377;43.276;26.930;2023-07-13T04:50:32;99022.22;;;24.61;100.00
10658;BME280;5377;43.276;26.930;2023-07-13T04:52:59;99042.28;;;24.75;100.00
10658;BME280;5377;43.276;26.930;2023-07-13T04:55:26;99048.34;;;24.91;100.00
10658;BME280;5377;43.276;26.930;2023-07-13T04:57:56;99050.94;;;24.82;100.00
10658;BME280;5377;43.276;26.930;2023-07-13T05:00:24;99048.22;;;24.63;100.00
10658;BME280;5377;43.276;26.930;2023-07-13T05:02:52;99035.50;;;24.72;100.00
10658;BME280;5377;43.276;26.930;2023-07-13T05:05:20;99050.13;;;24.81;100.00
10658;BME280;5377;43.276;26.930;2023-07-13T05:07:47;99047.72;;;24.94;100.00
10658;BME280;5377;43.276;26.930;2023-07-13T05:10:13;99048.94;;;25.06;100.00
10658;BME280;5377;43.276;26.930;2023-07-13T05:12:40;99045.50;;;25.14;100.00
10658;BME280;5377;43.276;26.930;2023-07-13T05:15:08;99055.06;;;25.17;100.00
10658;BME280;5377;43.276;26.930;2023-07-13T05:17:34;99035.03;;;25.03;100.00
10658;BME280;5377;43.276;26.930;2023-07-13T05:20:02;99055.94;;;24.99;100.00
10658;BME280;5377;43.276;26.930;2023-07-13T05:22:30;99035.78;;;25.22;100.00
10658;BME280;5377;43.276;26.930;2023-07-13T05:24:57;99024.81;;;25.22;100.00
10658;BME280;5377;43.276;26.930;2023-07-13T05:27:24;99050.16;;;25.60;100.00
10658;BME280;5377;43.276;26.930;2023-07-13T05:29:51;99048.22;;;25.61;100.00
10658;BME280;5377;43.276;26.930;2023-07-13T05:32:18;99054.28;;;25.76;100.00
10658;BME280;5377;43.276;26.930;2023-07-13T05:34:45;99025.84;;;25.72;100.00
10658;BME280;5377;43.276;26.930;2023-07-13T05:37:12;99048.38;;;25.97;100.00
10658;BME280;5377;43.276;26.930;2023-07-13T05:39:40;99048.47;;;26.05;100.00
10658;BME280;5377;43.276;26.930;2023-07-13T05:42:07;99046.56;;;26.06;100.00
10658;BME280;5377;43.276;26.930;2023-07-13T05:44:34;99054.75;;;26.20;100.00
10658;BME280;5377;43.276;26.930;2023-07-13T05:47:01;99052.41;;;26.27;100.00
10658;BME280;5377;43.276;26.930;2023-07-13T05:49:29;99056.88;;;26.36;100.00
10658;BME280;5377;43.276;26.930;2023-07-13T05:51:56;99063.00;;;26.47;100.00
10658;BME280;5377;43.276;26.930;2023-07-13T05:54:23;99046.69;;;26.51;100.00
10658;BME280;5377;43.276;26.930;2023-07-13T05:56:51;99056.81;;;26.64;100.00
10658;BME280;5377;43.276;26.930;2023-07-13T05:59:18;99058.75;;;26.63;100.00
10658;BME280;5377;43.276;26.930;2023-07-13T06:01:45;99063.78;;;26.84;100.00
10658;BME280;5377;43.276;26.930;2023-07-13T06:04:12;99058.97;;;26.89;100.00
10658;BME280;5377;43.276;26.930;2023-07-13T06:06:39;99065.16;;;26.95;100.00
10658;BME280;5377;43.276;26.930;2023-07-13T06:09:05;99059.66;;;26.95;100.00
10658;BME280;5377;43.276;26.930;2023-07-13T06:11:32;99059.84;;;27.12;100.00
10658;BME280;5377;43.276;26.930;2023-07-13T06:14:01;99056.69;;;27.05;100.00
10658;BME280;5377;43.276;26.930;2023-07-13T06:16:29;98996.97;;;26.75;100.00
10658;BME280;5377;43.276;26.930;2023-07-13T06:18:56;99054.38;;;27.21;100.00
10658;BME280;5377;43.276;26.930;2023-07-13T06:21:23;99058.97;;;27.34;100.00
10658;BME280;5377;43.276;26.930;2023-07-13T06:23:51;99048.59;;;27.31;100.00
10658;BME280;5377;43.276;26.930;2023-07-13T06:26:19;99054.75;;;27.59;100.00
10658;BME280;5377;43.276;26.930;2023-07-13T06:28:46;99046.47;;;27.50;100.00
10658;BME280;5377;43.276;26.930;2023-07-13T06:31:15;99048.34;;;27.72;100.00
10658;BME280;5377;43.276;26.930;2023-07-13T06:33:42;99049.03;;;27.78;100.00
10658;BME280;5377;43.276;26.930;2023-07-13T06:36:09;99050.06;;;27.90;100.00
10658;BME280;5377;43.276;26.930;2023-07-13T06:38:36;99051.03;;;27.94;100.00
10658;BME280;5377;43.276;26.930;2023-07-13T06:41:04;99049.47;;;28.11;100.00
10658;BME280;5377;43.276;26.930;2023-07-13T06:43:31;99057.59;;;28.16;100.00
10658;BME280;5377;43.276;26.930;2023-07-13T06:45:58;99055.69;;;28.25;100.00
10658;BME280;5377;43.276;26.930;2023-07-13T06:48:27;99051.81;;;28.43;100.00
10658;BME280;5377;43.276;26.930;2023-07-13T06:50:54;99054.88;;;28.42;100.00
10658;BME280;5377;43.276;26.930;2023-07-13T06:53:21;99043.25;;;28.62;100.00
10658;BME280;5377;43.276;26.930;2023-07-13T06:55:49;99049.06;;;28.69;100.00
10658;BME280;5377;43.276;26.930;2023-07-13T06:58:17;99041.63;;;28.52;100.00
10658;BME280;5377;43.276;26.930;2023-07-13T07:00:45;99049.75;;;28.83;100.00
10658;BME280;5377;43.276;26.930;2023-07-13T07:03:12;99032.22;;;28.71;100.00
10658;BME280;5377;43.276;26.930;2023-07-13T07:05:40;99047.66;;;28.98;100.00
10658;BME280;5377;43.276;26.930;2023-07-13T07:08:07;99046.16;;;29.09;100.00
10658;BME280;5377;43.276;26.930;2023-07-13T07:10:35;99047.94;;;29.22;100.00
10658;BME280;5377;43.276;26.930;2023-07-13T07:13:02;99050.53;;;29.18;98.68
10658;BME280;5377;43.276;26.930;2023-07-13T07:15:30;99050.66;;;29.31;98.41
10658;BME280;5377;43.276;26.930;2023-07-13T07:17:57;99060.88;;;29.39;97.24
10658;BME280;5377;43.276;26.930;2023-07-13T07:20:24;99036.84;;;29.48;100.00
10658;BME280;5377;43.276;26.930;2023-07-13T07:22:53;99039.75;;;29.60;98.66
10658;BME280;5377;43.276;26.930;2023-07-13T07:25:20;99040.78;;;29.85;96.23
10658;BME280;5377;43.276;26.930;2023-07-13T07:27:47;99048.34;;;29.97;98.17
10658;BME280;5377;43.276;26.930;2023-07-13T07:30:13;99046.06;;;29.99;97.50
10658;BME280;5377;43.276;26.930;2023-07-13T07:32:41;99048.78;;;30.07;95.93
10658;BME280;5377;43.276;26.930;2023-07-13T07:35:08;99035.03;;;30.28;94.74
10658;BME280;5377;43.276;26.930;2023-07-13T07:37:35;99041.69;;;30.48;94.61
10658;BME280;5377;43.276;26.930;2023-07-13T07:40:05;99036.47;;;30.55;91.71
10658;BME280;5377;43.276;26.930;2023-07-13T07:42:33;99031.44;;;30.49;91.82
10658;BME280;5377;43.276;26.930;2023-07-13T07:45:00;99038.16;;;30.68;91.28
10658;BME280;5377;43.276;26.930;2023-07-13T07:47:27;99031.44;;;30.49;90.50
10658;BME280;5377;43.276;26.930;2023-07-13T07:49:54;99035.41;;;30.89;88.44
10658;BME280;5377;43.276;26.930;2023-07-13T07:52:21;99030.38;;;31.03;89.05
10658;BME280;5377;43.276;26.930;2023-07-13T07:54:47;99015.97;;;31.10;86.54
10658;BME280;5377;43.276;26.930;2023-07-13T07:57:16;99019.94;;;31.21;84.42
10658;BME280;5377;43.276;26.930;2023-07-13T07:59:42;99025.22;;;31.59;83.22
10658;BME280;5377;43.276;26.930;2023-07-13T08:02:10;99026.53;;;31.86;84.49
10658;BME280;5377;43.276;26.930;2023-07-13T08:04:37;99031.25;;;32.10;81.84
10658;BME280;5377;43.276;26.930;2023-07-13T08:07:05;99019.00;;;32.11;81.73
10658;BME280;5377;43.276;26.930;2023-07-13T08:09:32;99029.75;;;32.13;82.01
10658;BME280;5377;43.276;26.930;2023-07-13T08:11:59;98976.31;;;31.88;79.02
10658;BME280;5377;43.276;26.930;2023-07-13T08:14:27;99024.34;;;32.29;78.22
10658;BME280;5377;43.276;26.930;2023-07-13T08:16:55;98994.72;;;32.45;79.71
10658;BME280;5377;43.276;26.930;2023-07-13T08:19:21;99006.66;;;32.73;75.39
10658;BME280;5377;43.276;26.930;2023-07-13T08:21:48;98997.97;;;32.75;74.73
10658;BME280;5377;43.276;26.930;2023-07-13T08:24:15;99020.59;;;32.89;73.65
10658;BME280;5377;43.276;26.930;2023-07-13T08:26:44;99013.59;;;32.79;73.35
10658;BME280;5377;43.276;26.930;2023-07-13T08:29:11;99017.25;;;33.11;73.35
10658;BME280;5377;43.276;26.930;2023-07-13T08:31:39;99016.06;;;33.40;68.81
10658;BME280;5377;43.276;26.930;2023-07-13T08:34:06;99015.81;;;33.45;68.69
10658;BME280;5377;43.276;26.930;2023-07-13T08:36:33;99010.44;;;33.53;65.66
10658;BME280;5377;43.276;26.930;2023-07-13T08:39:00;99003.75;;;34.20;63.22
10658;BME280;5377;43.276;26.930;2023-07-13T08:41:27;98962.44;;;34.77;59.91
10658;BME280;5377;43.276;26.930;2023-07-13T08:43:58;98981.16;;;35.87;55.78
10658;BME280;5377;43.276;26.930;2023-07-13T08:46:28;99006.53;;;36.91;52.43
10658;BME280;5377;43.276;26.930;2023-07-13T08:49:01;99002.47;;;37.63;48.96
10658;BME280;5377;43.276;26.930;2023-07-13T08:51:36;99000.88;;;37.65;49.71
10658;BME280;5377;43.276;26.930;2023-07-13T08:54:14;98999.63;;;38.07;47.34
10658;BME280;5377;43.276;26.930;2023-07-13T08:56:45;98986.22;;;38.37;42.65
10658;BME280;5377;43.276;26.930;2023-07-13T08:59:15;98996.91;;;39.05;42.11
10658;BME280;5377;43.276;26.930;2023-07-13T09:02:08;98993.03;;;39.63;34.57
10658;BME280;5377;43.276;26.930;2023-07-13T09:04:42;98987.38;;;39.48;32.16
10658;BME280;5377;43.276;26.930;2023-07-13T09:07:15;99001.00;;;40.17;32.20
10658;BME280;5377;43.276;26.930;2023-07-13T09:09:53;98993.81;;;40.09;30.86
10658;BME280;5377;43.276;26.930;2023-07-13T09:12:26;99002.59;;;40.26;30.95
10658;BME280;5377;43.276;26.930;2023-07-13T09:14:58;98999.38;;;40.20;33.79
10658;BME280;5377;43.276;26.930;2023-07-13T09:17:28;99003.31;;;40.55;32.22
10658;BME280;5377;43.276;26.930;2023-07-13T09:20:03;98995.69;;;40.62;31.29
10658;BME280;5377;43.276;26.930;2023-07-13T09:22:34;99000.19;;;40.17;30.96
10658;BME280;5377;43.276;26.930;2023-07-13T09:27:50;98995.38;;;40.17;30.61
10658;BME280;5377;43.276;26.930;2023-07-13T09:30:28;98991.00;;;40.06;29.15
10658;BME280;5377;43.276;26.930;2023-07-13T09:32:57;98986.59;;;40.05;28.93
10658;BME280;5377;43.276;26.930;2023-07-13T09:35:27;98986.59;;;39.87;29.04
10658;BME280;5377;43.276;26.930;2023-07-13T09:37:59;98983.81;;;39.90;28.25
10658;BME280;5377;43.276;26.930;2023-07-13T09:40:36;98984.16;;;40.25;28.31
10658;BME280;5377;43.276;26.930;2023-07-13T09:43:05;98950.56;;;39.36;30.06
10658;BME280;5377;43.276;26.930;2023-07-13T09:45:36;98977.81;;;39.64;30.47
10658;BME280;5377;43.276;26.930;2023-07-13T09:48:06;98970.56;;;39.30;30.64
10658;BME280;5377;43.276;26.930;2023-07-13T09:50:35;98967.38;;;39.50;30.03
10658;BME280;5377;43.276;26.930;2023-07-13T09:53:02;98962.56;;;39.50;30.65
10658;BME280;5377;43.276;26.930;2023-07-13T09:55:31;98953.00;;;39.58;30.53
10658;BME280;5377;43.276;26.930;2023-07-13T09:58:03;98938.13;;;39.97;30.98
10658;BME280;5377;43.276;26.930;2023-07-13T10:00:31;98942.53;;;40.02;29.45
10658;BME280;5377;43.276;26.930;2023-07-13T10:03:01;98950.16;;;39.94;30.20
10658;BME280;5377;43.276;26.930;2023-07-13T10:05:38;98936.91;;;39.91;29.07
10658;BME280;5377;43.276;26.930;2023-07-13T10:08:16;98944.13;;;39.99;28.04
10658;BME280;5377;43.276;26.930;2023-07-13T10:10:44;98956.16;;;39.92;28.83
10658;BME280;5377;43.276;26.930;2023-07-13T10:13:25;98952.56;;;39.53;28.98
10658;BME280;5377;43.276;26.930;2023-07-13T10:15:54;98954.19;;;39.65;28.74
10658;BME280;5377;43.276;26.930;2023-07-13T10:18:22;98942.50;;;39.06;29.46
10658;BME280;5377;43.276;26.930;2023-07-13T10:20:54;98945.22;;;38.81;30.47
10658;BME280;5377;43.276;26.930;2023-07-13T10:23:30;98956.47;;;38.95;30.31
10658;BME280;5377;43.276;26.930;2023-07-13T10:25:59;98937.63;;;38.74;30.61
10658;BME280;5377;43.276;26.930;2023-07-13T10:28:29;98932.38;;;38.62;29.80
10658;BME280;5377;43.276;26.930;2023-07-13T10:30:58;98938.13;;;39.12;30.00
10658;BME280;5377;43.276;26.930;2023-07-13T10:33:27;98939.75;;;39.38;29.53
10658;BME280;5377;43.276;26.930;2023-07-13T10:36:01;98946.41;;;38.76;30.09
10658;BME280;5377;43.276;26.930;2023-07-13T10:38:30;98949.59;;;38.71;30.77
10658;BME280;5377;43.276;26.930;2023-07-13T10:41:01;98941.84;;;38.36;31.39
10658;BME280;5377;43.276;26.930;2023-07-13T10:43:32;98931.22;;;38.70;30.57
10658;BME280;5377;43.276;26.930;2023-07-13T10:46:04;98940.88;;;38.97;30.84
10658;BME280;5377;43.276;26.930;2023-07-13T10:48:33;98933.72;;;39.36;30.68
10658;BME280;5377;43.276;26.930;2023-07-13T10:51:04;98932.97;;;39.60;31.12
10658;BME280;5377;43.276;26.930;2023-07-13T10:53:34;98950.19;;;39.58;30.99
10658;BME280;5377;43.276;26.930;2023-07-13T10:56:03;98939.38;;;39.57;31.75
10658;BME280;5377;43.276;26.930;2023-07-13T10:58:35;98932.09;;;39.81;31.09
10658;BME280;5377;43.276;26.930;2023-07-13T11:01:08;98936.13;;;40.01;32.19
10658;BME280;5377;43.276;26.930;2023-07-13T11:03:37;98928.06;;;40.10;30.13
10658;BME280;5377;43.276;26.930;2023-07-13T11:06:13;98931.06;;;40.66;31.18
10658;BME280;5377;43.276;26.930;2023-07-13T11:08:52;98928.34;;;40.48;30.55
10658;BME280;5377;43.276;26.930;2023-07-13T11:11:34;98926.16;;;40.84;30.22
10658;BME280;5377;43.276;26.930;2023-07-13T11:14:02;98932.03;;;41.07;30.97
10658;BME280;5377;43.276;26.930;2023-07-13T11:16:42;98928.72;;;41.23;29.79
10658;BME280;5377;43.276;26.930;2023-07-13T11:19:28;98943.16;;;40.52;30.19
10658;BME280;5377;43.276;26.930;2023-07-13T11:22:24;98928.84;;;40.14;30.87
10658;BME280;5377;43.276;26.930;2023-07-13T11:25:02;98936.75;;;40.48;30.58
10658;BME280;5377;43.276;26.930;2023-07-13T11:27:46;98930.63;;;40.74;31.34
10658;BME280;5377;43.276;26.930;2023-07-13T11:33:15;98922.41;;;41.08;29.17
10658;BME280;5377;43.276;26.930;2023-07-13T11:35:53;98941.03;;;40.81;29.54
10658;BME280;5377;43.276;26.930;2023-07-13T11:38:31;98925.69;;;39.91;30.12
10658;BME280;5377;43.276;26.930;2023-07-13T11:41:02;98940.56;;;39.67;30.75
10658;BME280;5377;43.276;26.930;2023-07-13T11:43:29;98938.94;;;39.94;30.77
10658;BME280;5377;43.276;26.930;2023-07-13T11:45:59;98929.66;;;40.11;31.02
10658;BME280;5377;43.276;26.930;2023-07-13T11:48:27;98925.88;;;40.61;29.89
10658;BME280;5377;43.276;26.930;2023-07-13T11:50:58;98919.75;;;40.83;31.35
10658;BME280;5377;43.276;26.930;2023-07-13T11:53:30;98921.94;;;41.13;29.71
10658;BME280;5377;43.276;26.930;2023-07-13T11:56:00;98919.56;;;41.12;29.29
10658;BME280;5377;43.276;26.930;2023-07-13T11:58:27;98898.56;;;41.31;28.76
10658;BME280;5377;43.276;26.930;2023-07-13T12:00:58;98883.22;;;41.39;30.45
10658;BME280;5377;43.276;26.930;2023-07-13T12:03:26;98875.97;;;41.41;29.01
10658;BME280;5377;43.276;26.930;2023-07-13T12:05:59;98883.03;;;41.12;29.94
10658;BME280;5377;43.276;26.930;2023-07-13T12:08:28;98883.28;;;41.28;29.71
10658;BME280;5377;43.276;26.930;2023-07-13T12:11:06;98887.31;;;41.31;28.77
10658;BME280;5377;43.276;26.930;2023-07-13T12:13:38;98877.09;;;40.99;30.14
10658;BME280;5377;43.276;26.930;2023-07-13T12:16:14;98875.19;;;41.37;27.77
10658;BME280;5377;43.276;26.930;2023-07-13T12:18:43;98873.84;;;41.53;28.67
10658;BME280;5377;43.276;26.930;2023-07-13T12:21:16;98872.84;;;41.32;28.30
10658;BME280;5377;43.276;26.930;2023-07-13T12:23:48;98852.16;;;41.05;29.12
10658;BME280;5377;43.276;26.930;2023-07-13T12:26:17;98877.41;;;41.12;28.62
10658;BME280;5377;43.276;26.930;2023-07-13T12:28:47;98871.53;;;40.96;28.48
10658;BME280;5377;43.276;26.930;2023-07-13T12:31:24;98868.28;;;40.28;28.99
10658;BME280;5377;43.276;26.930;2023-07-13T12:34:00;98855.69;;;40.53;28.73
10658;BME280;5377;43.276;26.930;2023-07-13T12:36:31;98859.41;;;40.40;28.96
10658;BME280;5377;43.276;26.930;2023-07-13T12:39:04;98844.81;;;40.66;28.78
10658;BME280;5377;43.276;26.930;2023-07-13T12:41:34;98850.56;;;41.04;28.40
10658;BME280;5377;43.276;26.930;2023-07-13T12:44:00;98835.88;;;41.34;27.94
10658;BME280;5377;43.276;26.930;2023-07-13T12:46:28;98847.25;;;41.16;27.74
10658;BME280;5377;43.276;26.930;2023-07-13T12:48:57;98845.72;;;41.08;28.19
10658;BME280;5377;43.276;26.930;2023-07-13T12:51:26;98849.31;;;41.53;27.50
10658;BME280;5377;43.276;26.930;2023-07-13T12:53:57;98818.53;;;41.42;27.49
10658;BME280;5377;43.276;26.930;2023-07-13T12:56:28;98823.22;;;41.90;26.77
10658;BME280;5377;43.276;26.930;2023-07-13T12:58:58;98826.91;;;42.18;26.99
10658;BME280;5377;43.276;26.930;2023-07-13T13:01:31;98825.41;;;42.10;27.30
10658;BME280;5377;43.276;26.930;2023-07-13T13:04:01;98822.13;;;42.15;26.36
10658;BME280;5377;43.276;26.930;2023-07-13T13:06:31;98819.31;;;42.15;26.21
10658;BME280;5377;43.276;26.930;2023-07-13T13:08:59;98816.47;;;41.84;27.25
10658;BME280;5377;43.276;26.930;2023-07-13T13:11:30;98813.63;;;42.49;27.89
10658;BME280;5377;43.276;26.930;2023-07-13T13:13:57;98818.47;;;42.48;25.73